createdAt,value
2019-05-06T00:01:33.788Z,85.40
2019-05-06T00:04:20.486Z,85.30
2019-05-06T00:06:47.978Z,84.50
2019-05-06T00:09:34.974Z,85.40
2019-05-06T00:12:03.991Z,85.50
2019-05-06T00:14:33.841Z,85.90
2019-05-06T00:17:03.739Z,86.70
2019-05-06T00:19:30.817Z,86.30
2019-05-06T00:21:58.060Z,86.70
2019-05-06T00:24:29.361Z,86.10
2019-05-06T00:27:07.038Z,86.20
2019-05-06T00:29:35.048Z,86.60
2019-05-06T00:32:24.165Z,87.00
2019-05-06T00:34:54.671Z,86.00
2019-05-06T00:37:23.992Z,87.10
2019-05-06T00:39:57.411Z,86.50
2019-05-06T00:42:34.395Z,86.50
2019-05-06T00:45:01.510Z,86.90
2019-05-06T00:47:28.854Z,87.30
2019-05-06T00:49:56.668Z,87.00
2019-05-06T00:52:26.029Z,86.50
2019-05-06T00:55:13.776Z,86.80
2019-05-06T00:57:44.471Z,87.20
2019-05-06T01:00:16.809Z,87.40
2019-05-06T01:02:44.320Z,87.40
2019-05-06T01:05:13.405Z,87.10
2019-05-06T01:07:41.177Z,87.90
2019-05-06T01:10:08.457Z,87.80
2019-05-06T01:12:38.146Z,87.40
2019-05-06T01:15:09.750Z,86.50
2019-05-06T01:17:37.109Z,87.60
2019-05-06T01:20:04.618Z,87.80
2019-05-06T01:22:34.108Z,88.40
2019-05-06T01:25:03.859Z,87.90
2019-05-06T01:27:33.645Z,88.20
2019-05-06T01:30:00.404Z,87.60
2019-05-06T01:32:28.009Z,88.20
2019-05-06T01:35:14.967Z,88.30
2019-05-06T01:37:44.279Z,87.50
2019-05-06T01:40:23.888Z,88.00
2019-05-06T01:42:56.484Z,88.00
2019-05-06T01:45:23.948Z,87.30
2019-05-06T01:47:51.832Z,87.30
2019-05-06T01:50:18.993Z,87.30
2019-05-06T01:52:46.521Z,87.20
2019-05-06T01:55:14.274Z,86.90
2019-05-06T01:57:41.929Z,86.40
2019-05-06T02:00:09.213Z,86.90
2019-05-06T02:02:36.859Z,86.80
2019-05-06T02:05:04.835Z,86.40
2019-05-06T02:07:34.792Z,87.00
2019-05-06T02:10:03.985Z,86.30
2019-05-06T02:12:34.086Z,86.20
2019-05-06T02:15:00.250Z,85.90
2019-05-06T02:17:28.077Z,85.80
2019-05-06T02:19:55.557Z,85.10
2019-05-06T02:22:54.917Z,85.70
2019-05-06T02:25:37.345Z,84.80
2019-05-06T02:28:04.794Z,84.90
2019-05-06T02:30:56.262Z,84.90
2019-05-06T02:33:55.813Z,84.70
2019-05-06T02:36:45.564Z,84.40
2019-05-06T02:39:14.109Z,84.00
2019-05-06T02:41:42.994Z,83.70
2019-05-06T02:44:13.597Z,84.10
2019-05-06T02:46:44.156Z,83.40
2019-05-06T02:49:33.042Z,83.20
2019-05-06T02:52:02.798Z,83.80
2019-05-06T02:54:29.377Z,82.80
2019-05-06T02:56:56.954Z,83.60
2019-05-06T02:59:24.501Z,83.50
2019-05-06T03:01:53.874Z,83.10
2019-05-06T03:04:23.671Z,83.40
2019-05-06T03:06:53.220Z,82.60
2019-05-06T03:09:23.102Z,83.20
2019-05-06T03:11:49.473Z,83.90
2019-05-06T03:14:17.092Z,83.10
2019-05-06T03:16:44.480Z,83.50
2019-05-06T03:19:13.254Z,83.10
2019-05-06T03:22:03.466Z,83.60
2019-05-06T03:24:38.253Z,83.20
2019-05-06T03:27:05.986Z,83.60
2019-05-06T03:29:53.724Z,83.60
2019-05-06T03:32:25.218Z,83.30
2019-05-06T03:35:27.296Z,83.60
2019-05-06T03:37:59.541Z,83.60
2019-05-06T03:40:26.574Z,84.00
2019-05-06T03:42:54.360Z,84.30
2019-05-06T03:48:24.024Z,84.20
2019-05-06T03:50:55.672Z,84.90
2019-05-06T03:53:23.074Z,84.50
2019-05-06T03:55:50.073Z,84.80
2019-05-06T03:58:17.445Z,85.00
2019-05-06T04:00:44.969Z,84.60
2019-05-06T04:03:14.028Z,85.10
2019-05-06T04:05:43.584Z,85.00
2019-05-06T04:08:12.692Z,85.40
2019-05-06T04:10:43.240Z,85.20
2019-05-06T04:13:13.280Z,85.20
2019-05-06T04:16:16.730Z,85.30
2019-05-06T04:18:50.009Z,85.20
2019-05-06T04:21:33.819Z,85.20
2019-05-06T04:24:09.321Z,85.40
2019-05-06T04:26:53.336Z,85.60
2019-05-06T04:29:20.609Z,86.00
2019-05-06T04:31:48.292Z,86.50
2019-05-06T04:34:19.380Z,85.40
2019-05-06T04:36:44.791Z,86.40
2019-05-06T04:39:13.294Z,86.70
2019-05-06T04:41:43.334Z,86.50
2019-05-06T04:44:29.474Z,86.30
2019-05-06T04:46:57.026Z,87.10
2019-05-06T04:49:24.648Z,88.00
2019-05-06T04:51:54.076Z,87.70
2019-05-06T04:54:26.144Z,87.40
2019-05-06T04:56:53.561Z,87.40
2019-05-06T04:59:43.090Z,87.80
2019-05-06T05:02:09.703Z,87.30
2019-05-06T05:04:37.237Z,88.10
2019-05-06T05:07:24.762Z,87.40
2019-05-06T05:09:59.525Z,88.10
2019-05-06T05:12:33.597Z,89.10
2019-05-06T05:15:14.549Z,88.50
2019-05-06T05:17:46.662Z,88.70
2019-05-06T05:20:37.738Z,88.10
2019-05-06T05:23:02.846Z,88.10
2019-05-06T05:25:32.728Z,88.10
2019-05-06T05:28:02.018Z,88.30
2019-05-06T05:30:29.173Z,88.50
2019-05-06T05:33:16.040Z,88.20
2019-05-06T05:35:43.863Z,88.20
2019-05-06T05:38:13.042Z,88.60
2019-05-06T05:40:40.187Z,88.30
2019-05-06T05:43:39.280Z,89.70
2019-05-06T05:46:05.785Z,88.60
2019-05-06T05:48:55.272Z,89.00
2019-05-06T05:51:23.038Z,89.70
2019-05-06T05:53:52.327Z,88.60
2019-05-06T05:56:20.118Z,88.70
2019-05-06T05:58:47.337Z,89.30
2019-05-06T06:01:15.203Z,89.60
2019-05-06T06:03:42.400Z,89.00
2019-05-06T06:06:12.447Z,89.00
2019-05-06T06:08:39.945Z,88.10
2019-05-06T06:11:13.792Z,89.20
2019-05-06T06:13:43.331Z,89.50
2019-05-06T06:16:33.119Z,88.70
2019-05-06T06:19:32.914Z,88.70
2019-05-06T06:22:03.972Z,88.50
2019-05-06T06:24:33.140Z,89.20
2019-05-06T06:27:00.480Z,90.20
2019-05-06T06:29:27.979Z,89.10
2019-05-06T06:32:27.040Z,89.10
2019-05-06T06:35:14.284Z,89.20
2019-05-06T06:40:27.816Z,89.90
2019-05-06T06:43:02.133Z,90.00
2019-05-06T06:45:32.438Z,90.00
2019-05-06T06:48:00.012Z,90.80
2019-05-06T06:50:27.414Z,90.20
2019-05-06T06:52:55.224Z,90.30
2019-05-06T06:55:22.715Z,90.30
2019-05-06T06:58:11.867Z,91.00
2019-05-06T07:00:53.339Z,90.40
2019-05-06T07:03:32.739Z,90.20
2019-05-06T07:06:14.588Z,90.30
2019-05-06T07:08:52.183Z,90.40
2019-05-06T07:11:22.513Z,90.50
2019-05-06T07:13:55.599Z,90.30
2019-05-06T07:16:23.570Z,90.40
2019-05-06T07:19:12.795Z,90.30
2019-05-06T07:21:59.817Z,90.10
2019-05-06T07:24:27.725Z,90.30
2019-05-06T07:27:03.973Z,90.20
2019-05-06T07:29:32.787Z,90.40
2019-05-06T07:32:02.505Z,90.40
2019-05-06T07:34:32.097Z,90.30
2019-05-06T07:36:59.587Z,90.20
2019-05-06T07:39:29.597Z,90.90
2019-05-06T07:42:17.097Z,90.40
2019-05-06T07:45:08.995Z,90.70
2019-05-06T07:48:03.553Z,90.40
2019-05-06T07:50:33.094Z,90.70
2019-05-06T07:53:07.749Z,90.30
2019-05-06T07:55:36.331Z,90.60
2019-05-06T07:58:09.752Z,90.80
2019-05-06T08:00:37.388Z,90.50
2019-05-06T08:03:05.854Z,90.70
2019-05-06T08:05:33.774Z,90.30
2019-05-06T08:08:22.859Z,90.30
2019-05-06T08:10:52.596Z,90.40
2019-05-06T08:13:19.959Z,90.40
2019-05-06T08:15:47.161Z,90.30
2019-05-06T08:18:14.898Z,90.20
2019-05-06T08:21:04.327Z,90.30
2019-05-06T08:23:45.294Z,90.20
2019-05-06T08:26:17.267Z,90.00
2019-05-06T08:28:44.495Z,90.40
2019-05-06T08:31:12.822Z,90.70
2019-05-06T08:33:42.808Z,90.50
2019-05-06T08:36:22.445Z,90.30
2019-05-06T08:38:56.378Z,90.50
2019-05-06T08:41:23.807Z,90.40
2019-05-06T08:43:52.772Z,90.50
2019-05-06T08:46:39.962Z,90.50
2019-05-06T08:49:13.838Z,90.10
2019-05-06T08:52:03.511Z,90.60
2019-05-06T08:54:36.668Z,90.20
2019-05-06T08:57:04.096Z,90.30
2019-05-06T08:59:32.184Z,90.50
2019-05-06T09:02:03.238Z,90.80
2019-05-06T09:04:32.071Z,90.70
2019-05-06T09:07:04.555Z,90.70
2019-05-06T09:09:32.742Z,90.80
2019-05-06T09:12:02.388Z,90.80
2019-05-06T09:14:32.419Z,90.60
2019-05-06T09:16:59.369Z,90.70
2019-05-06T09:19:26.784Z,90.70
2019-05-06T09:21:54.663Z,90.80
2019-05-06T09:24:23.054Z,90.60
2019-05-06T09:27:24.975Z,90.60
2019-05-06T09:30:22.954Z,90.60
2019-05-06T09:32:52.154Z,90.80
2019-05-06T09:35:21.732Z,91.00
2019-05-06T09:38:08.771Z,91.10
2019-05-06T09:40:36.499Z,91.00
2019-05-06T09:43:04.771Z,91.30
2019-05-06T09:45:33.000Z,91.10
2019-05-06T09:48:07.845Z,91.10
2019-05-06T09:50:48.795Z,91.50
2019-05-06T09:53:24.718Z,91.20
2019-05-06T09:56:12.995Z,91.10
2019-05-06T09:58:43.027Z,90.60
2019-05-06T10:01:12.959Z,90.90
2019-05-06T10:03:39.587Z,90.70
2019-05-06T10:06:09.170Z,90.40
2019-05-06T10:08:36.566Z,91.00
2019-05-06T10:11:04.468Z,91.00
2019-05-06T10:13:32.770Z,91.10
2019-05-06T10:16:20.317Z,91.00
2019-05-06T10:18:47.711Z,90.80
2019-05-06T10:21:15.330Z,90.80
2019-05-06T10:23:42.703Z,90.80
2019-05-06T10:26:12.811Z,90.90
2019-05-06T10:28:59.222Z,90.80
2019-05-06T10:31:28.428Z,90.70
2019-05-06T10:34:09.604Z,90.80
2019-05-06T10:36:46.981Z,90.60
2019-05-06T10:39:14.727Z,90.60
2019-05-06T10:41:44.300Z,90.50
2019-05-06T10:44:29.731Z,90.60
2019-05-06T10:46:57.555Z,90.70
2019-05-06T10:50:02.648Z,91.30
2019-05-06T10:52:51.841Z,90.70
2019-05-06T10:55:27.909Z,90.30
2019-05-06T10:57:55.406Z,90.10
2019-05-06T11:00:23.263Z,90.00
2019-05-06T11:03:22.572Z,90.00
2019-05-06T11:06:09.325Z,90.00
2019-05-06T11:08:37.128Z,88.50
2019-05-06T11:11:14.897Z,86.70
2019-05-06T11:13:33.798Z,87.60
2019-05-06T11:16:03.298Z,86.50
2019-05-06T11:18:33.167Z,86.70
2019-05-06T11:21:00.153Z,87.30
2019-05-06T11:23:27.320Z,82.70
2019-05-06T11:25:54.849Z,84.30
2019-05-06T11:28:44.794Z,84.50
2019-05-06T11:31:34.497Z,84.30
2019-05-06T11:34:23.984Z,84.60
2019-05-06T11:39:52.998Z,85.50
2019-05-06T11:42:30.953Z,83.60
2019-05-06T11:44:49.649Z,85.20
2019-05-06T11:47:17.605Z,85.10
2019-05-06T11:50:05.256Z,86.20
2019-05-06T11:52:34.589Z,85.50
2019-05-06T11:55:02.284Z,85.90
2019-05-06T11:57:29.916Z,85.80
2019-05-06T11:59:57.395Z,85.90
2019-05-06T12:02:25.973Z,86.10
2019-05-06T12:04:53.240Z,84.80
2019-05-06T12:07:24.156Z,83.50
2019-05-06T12:09:49.710Z,83.90
2019-05-06T12:12:17.899Z,84.00
2019-05-06T12:14:45.573Z,84.30
2019-05-06T12:17:13.320Z,82.60
2019-05-06T12:19:43.034Z,83.10
2019-05-06T12:22:13.795Z,81.40
2019-05-06T12:24:43.039Z,82.60
2019-05-06T12:27:12.829Z,82.10
2019-05-06T12:29:42.866Z,83.60
2019-05-06T12:32:29.360Z,84.40
2019-05-06T12:34:57.367Z,84.20
2019-05-06T12:37:26.673Z,84.30
2019-05-06T12:39:56.370Z,84.00
2019-05-06T12:42:26.655Z,82.60
2019-05-06T12:45:08.926Z,83.00
2019-05-06T12:47:55.010Z,82.40
2019-05-06T12:50:23.001Z,82.50
2019-05-06T12:52:58.017Z,83.30
2019-05-06T12:55:26.642Z,83.50
2019-05-06T12:57:54.092Z,80.70
2019-05-06T13:00:23.530Z,80.30
2019-05-06T13:02:53.055Z,82.30
2019-05-06T13:05:22.814Z,79.30
2019-05-06T13:08:32.436Z,79.90
2019-05-06T13:10:53.065Z,81.20
2019-05-06T13:13:56.415Z,81.60
2019-05-06T13:19:00.453Z,83.00
2019-05-06T13:21:28.026Z,83.10
2019-05-06T13:24:02.405Z,83.10
2019-05-06T13:26:29.090Z,83.50
2019-05-06T13:29:04.301Z,83.40
2019-05-06T13:31:43.863Z,84.10
2019-05-06T13:34:25.126Z,84.00
2019-05-06T13:37:00.183Z,84.20
2019-05-06T13:39:27.235Z,84.80
2019-05-06T13:41:55.095Z,84.40
2019-05-06T13:44:22.905Z,84.20
2019-05-06T13:46:53.372Z,83.40
2019-05-06T13:49:49.198Z,83.20
2019-05-06T13:52:33.036Z,82.90
2019-05-06T13:55:38.524Z,82.60
2019-05-06T13:58:08.173Z,82.50
2019-05-06T14:00:36.321Z,83.50
2019-05-06T14:03:03.929Z,83.10
2019-05-06T14:06:03.052Z,83.50
2019-05-06T14:08:32.888Z,84.40
2019-05-06T14:11:00.190Z,83.90
2019-05-06T14:13:48.612Z,83.80
2019-05-06T14:16:16.111Z,83.60
2019-05-06T14:18:43.854Z,83.80
2019-05-06T14:21:12.429Z,83.40
2019-05-06T14:23:40.478Z,83.90
2019-05-06T14:26:35.592Z,84.10
2019-05-06T14:29:23.418Z,81.90
2019-05-06T14:31:52.520Z,81.70
2019-05-06T14:34:20.166Z,82.90
2019-05-06T14:36:48.027Z,82.90
2019-05-06T14:39:23.821Z,82.80
2019-05-06T14:41:53.761Z,82.90
2019-05-06T14:44:23.105Z,83.70
2019-05-06T14:47:04.894Z,83.40
2019-05-06T14:49:53.011Z,83.80
2019-05-06T14:52:22.610Z,83.70
2019-05-06T14:55:15.482Z,83.90
2019-05-06T14:57:43.337Z,83.60
2019-05-06T15:00:13.078Z,84.00
2019-05-06T15:02:42.723Z,83.90
2019-05-06T15:05:09.760Z,83.20
2019-05-06T15:07:36.997Z,83.00
2019-05-06T15:10:26.319Z,84.00
2019-05-06T15:12:53.533Z,84.50
2019-05-06T15:15:22.883Z,84.40
2019-05-06T15:17:50.397Z,83.80
2019-05-06T15:20:17.894Z,84.30
2019-05-06T15:22:45.150Z,84.00
2019-05-06T15:25:33.060Z,84.20
2019-05-06T15:28:02.518Z,83.80
2019-05-06T15:31:13.498Z,84.20
2019-05-06T15:33:44.086Z,83.80
2019-05-06T15:36:22.325Z,85.50
2019-05-06T15:38:52.601Z,84.20
2019-05-06T15:41:19.888Z,84.80
2019-05-06T15:43:47.356Z,84.70
2019-05-06T15:46:34.222Z,85.00
2019-05-06T15:49:03.045Z,84.60
2019-05-06T15:51:42.607Z,84.50
2019-05-06T15:54:06.970Z,83.90
2019-05-06T15:56:36.275Z,84.00
2019-05-06T15:59:05.275Z,84.00
2019-05-06T16:01:53.336Z,84.60
2019-05-06T16:04:22.742Z,84.00
2019-05-06T16:06:52.698Z,84.40
2019-05-06T16:09:32.915Z,84.80
2019-05-06T16:12:24.796Z,84.30
2019-05-06T16:14:56.307Z,84.40
2019-05-06T16:17:26.463Z,84.90
2019-05-06T16:19:53.870Z,84.40
2019-05-06T16:22:26.159Z,83.80
2019-05-06T16:24:59.346Z,83.10
2019-05-06T16:27:26.967Z,83.80
2019-05-06T16:29:54.761Z,82.90
2019-05-06T16:32:22.602Z,83.90
2019-05-06T16:34:52.488Z,83.60
2019-05-06T16:37:22.134Z,83.10
2019-05-06T16:39:49.252Z,83.80
2019-05-06T16:42:17.943Z,83.80
2019-05-06T16:44:45.447Z,83.80
2019-05-06T16:47:32.950Z,83.00
2019-05-06T16:50:01.175Z,84.30
2019-05-06T16:52:28.729Z,84.20
2019-05-06T16:54:56.733Z,84.40
2019-05-06T16:57:24.198Z,84.40
2019-05-06T17:00:02.983Z,84.10
2019-05-06T17:02:41.989Z,83.60
2019-05-06T17:05:29.019Z,84.00
2019-05-06T17:07:59.289Z,83.40
2019-05-06T17:10:26.853Z,83.60
2019-05-06T17:12:57.399Z,83.60
2019-05-06T17:15:27.241Z,83.60
2019-05-06T17:17:55.777Z,83.60
2019-05-06T17:20:23.185Z,84.20
2019-05-06T17:22:53.022Z,82.20
2019-05-06T17:25:22.313Z,83.10
2019-05-06T17:27:52.654Z,82.80
2019-05-06T17:30:39.536Z,83.00
2019-05-06T17:33:25.067Z,82.90
2019-05-06T17:35:52.876Z,82.90
2019-05-06T17:38:24.297Z,83.20
2019-05-06T17:41:12.328Z,83.20
2019-05-06T17:43:41.079Z,82.90
2019-05-06T17:46:08.965Z,83.10
2019-05-06T17:48:47.355Z,83.10
2019-05-06T17:51:46.753Z,82.90
2019-05-06T17:54:14.643Z,83.70
2019-05-06T17:56:42.084Z,84.00
2019-05-06T17:59:29.177Z,83.40
2019-05-06T18:01:59.136Z,83.60
2019-05-06T18:04:26.561Z,83.80
2019-05-06T18:06:54.407Z,83.30
2019-05-06T18:09:23.944Z,83.90
2019-05-06T18:11:58.997Z,83.90
2019-05-06T18:14:22.991Z,84.10
2019-05-06T18:16:53.610Z,84.20
2019-05-06T18:19:22.260Z,84.20
2019-05-06T18:21:49.653Z,84.70
2019-05-06T18:24:17.242Z,83.60
2019-05-06T18:26:45.104Z,83.90
2019-05-06T18:29:12.847Z,84.30
2019-05-06T18:31:43.398Z,84.20
2019-05-06T18:34:12.903Z,84.20
2019-05-06T18:36:42.768Z,83.90
2019-05-06T18:39:12.583Z,84.40
2019-05-06T18:41:41.924Z,84.40
2019-05-06T18:44:09.372Z,84.70
2019-05-06T18:46:37.157Z,84.80
2019-05-06T18:49:24.338Z,85.10
2019-05-06T18:51:54.114Z,84.60
2019-05-06T18:54:22.041Z,84.60
2019-05-06T18:56:52.127Z,85.20
2019-05-06T18:59:19.728Z,84.30
2019-05-06T19:01:47.578Z,84.70
2019-05-06T19:04:22.548Z,85.00
2019-05-06T19:06:50.001Z,85.00
2019-05-06T19:09:34.681Z,85.10
2019-05-06T19:12:03.610Z,85.20
2019-05-06T19:14:43.219Z,84.90
2019-05-06T19:17:13.013Z,86.20
2019-05-06T19:19:42.451Z,85.80
2019-05-06T19:22:09.463Z,85.60
2019-05-06T19:24:42.315Z,85.80
2019-05-06T19:27:09.840Z,86.10
2019-05-06T19:29:37.239Z,85.80
2019-05-06T19:32:05.122Z,85.80
2019-05-06T19:34:35.220Z,85.90
2019-05-06T19:37:02.592Z,86.30
2019-05-06T19:39:32.368Z,86.20
2019-05-06T19:41:59.527Z,86.60
2019-05-06T19:44:27.243Z,86.60
2019-05-06T19:46:54.562Z,87.40
2019-05-06T19:49:23.826Z,87.10
2019-05-06T19:51:52.269Z,86.80
2019-05-06T19:54:22.404Z,87.10
2019-05-06T19:56:49.934Z,87.30
2019-05-06T20:02:15.853Z,87.00
2019-05-06T20:04:47.304Z,86.80
2019-05-06T20:07:42.849Z,87.00
2019-05-06T20:13:14.524Z,87.60
2019-05-06T20:15:51.995Z,87.50
2019-05-06T20:18:19.796Z,87.40
2019-05-06T20:20:48.224Z,87.80
2019-05-06T20:23:17.092Z,88.10
2019-05-06T20:25:44.926Z,88.20
2019-05-06T20:28:13.292Z,88.20
2019-05-06T20:30:42.255Z,87.60
2019-05-06T20:33:12.290Z,88.40
2019-05-06T20:35:39.909Z,87.50
2019-05-06T20:38:07.500Z,88.00
2019-05-06T20:40:37.022Z,88.00
2019-05-06T20:43:16.707Z,88.60
2019-05-06T20:45:35.545Z,87.70
2019-05-06T20:48:04.033Z,88.70
2019-05-06T20:50:32.151Z,88.20
2019-05-06T20:53:00.231Z,89.10
2019-05-06T20:55:27.695Z,89.40
2019-05-06T20:57:55.609Z,89.80
2019-05-06T21:00:23.351Z,90.00
2019-05-06T21:02:53.313Z,90.00
2019-05-06T21:05:22.751Z,89.70
2019-05-06T21:07:52.415Z,89.50
2019-05-06T21:10:19.463Z,89.90
2019-05-06T21:12:46.941Z,89.60
2019-05-06T21:15:14.621Z,89.70
2019-05-06T21:17:42.108Z,89.90
2019-05-06T21:20:09.808Z,89.90
2019-05-06T21:22:37.207Z,89.80
2019-05-06T21:25:06.000Z,89.90
2019-05-06T21:27:33.460Z,90.00
2019-05-06T21:30:20.358Z,89.90
2019-05-06T21:32:48.102Z,90.20
2019-05-06T21:35:15.113Z,90.20
2019-05-06T21:37:43.034Z,90.30
2019-05-06T21:40:12.300Z,90.70
2019-05-06T21:42:40.132Z,90.80
2019-05-06T21:45:07.465Z,90.20
2019-05-06T21:47:35.200Z,90.40
2019-05-06T21:50:02.536Z,90.20
2019-05-06T21:52:37.162Z,90.70
2019-05-06T21:54:59.687Z,90.20
2019-05-06T21:57:27.507Z,90.70
2019-05-06T21:59:56.928Z,90.40
2019-05-06T22:02:24.247Z,90.60
2019-05-06T22:04:52.351Z,90.50
2019-05-06T22:07:22.875Z,90.30
2019-05-06T22:10:10.091Z,91.10
2019-05-06T22:12:37.494Z,90.50
2019-05-06T22:15:06.017Z,90.60
2019-05-06T22:17:33.389Z,91.30
2019-05-06T22:20:03.110Z,90.70
2019-05-06T22:22:32.817Z,91.20
2019-05-06T22:25:02.661Z,91.30
2019-05-06T22:27:29.505Z,90.80
2019-05-06T22:30:16.309Z,90.70
2019-05-06T22:32:46.624Z,90.70
2019-05-06T22:35:15.633Z,91.30
2019-05-06T22:37:45.071Z,91.30
2019-05-06T22:40:12.638Z,91.40
2019-05-06T22:42:40.026Z,91.50
2019-05-06T22:45:07.887Z,91.30
2019-05-06T22:47:35.317Z,91.10
2019-05-06T22:50:03.277Z,91.40
2019-05-06T22:52:32.549Z,90.80
2019-05-06T22:55:03.745Z,91.30
2019-05-06T22:57:29.476Z,91.60
2019-05-06T22:59:56.933Z,91.50
2019-05-06T23:02:39.855Z,91.70
2019-05-06T23:05:07.876Z,91.40
2019-05-06T23:07:35.173Z,91.20
2019-05-06T23:10:03.434Z,91.40
2019-05-06T23:12:32.517Z,91.80
2019-05-06T23:15:02.489Z,91.60
2019-05-06T23:17:29.616Z,92.10
2019-05-06T23:19:57.444Z,91.50
2019-05-06T23:22:25.146Z,91.50
2019-05-06T23:24:54.171Z,91.80
2019-05-06T23:27:23.266Z,91.20
2019-05-06T23:29:52.612Z,91.00
2019-05-06T23:32:39.667Z,91.10
2019-05-06T23:35:06.993Z,91.10
2019-05-06T23:38:12.157Z,91.30
2019-05-06T23:41:16.417Z,91.20
2019-05-06T23:44:23.055Z,91.50
2019-05-06T23:47:32.621Z,91.40
2019-05-06T23:50:36.746Z,91.30
2019-05-06T23:53:41.328Z,91.10
2019-05-06T23:56:44.299Z,91.10
2019-05-06T23:59:12.550Z,91.10
